sensor_id;sensor_type;location;lat;lon;timestamp;pressure;altitude;pressure_sealevel;temperature;humidity
13709;BME280;54933;51.908;7.730;2022-12-29T00:02:13;99587.69;;;20.06;79.95
13709;BME280;54933;51.908;7.730;2022-12-29T00:04:39;99599.31;;;20.06;79.97
13709;BME280;54933;51.908;7.730;2022-12-29T00:07:05;99589.31;;;20.07;79.88
13709;BME280;54933;51.908;7.730;2022-12-29T00:09:31;99578.53;;;20.07;79.85
13709;BME280;54933;51.908;7.730;2022-12-29T00:11:57;99582.31;;;20.06;79.68
13709;BME280;54933;51.908;7.730;2022-12-29T00:14:22;99575.84;;;20.07;79.73
13709;BME280;54933;51.908;7.730;2022-12-29T00:17:06;99573.16;;;20.07;79.82
13709;BME280;54933;51.908;7.730;2022-12-29T00:19:32;99585.84;;;20.06;79.93
13709;BME280;54933;51.908;7.730;2022-12-29T00:22:16;99583.94;;;20.07;79.79
13709;BME280;54933;51.908;7.730;2022-12-29T00:25:00;99577.75;;;20.06;79.84
13709;BME280;54933;51.908;7.730;2022-12-29T00:27:44;99580.69;;;20.05;79.78
13709;BME280;54933;51.908;7.730;2022-12-29T00:30:28;99576.91;;;20.06;79.78
13709;BME280;54933;51.908;7.730;2022-12-29T00:33:14;99560.72;;;20.06;79.78
13709;BME280;54933;51.908;7.730;2022-12-29T00:36:03;99559.66;;;20.07;79.87
13709;BME280;54933;51.908;7.730;2022-12-29T00:38:32;99549.94;;;20.06;79.86
13709;BME280;54933;51.908;7.730;2022-12-29T00:41:19;99545.38;;;20.06;79.89
13709;BME280;54933;51.908;7.730;2022-12-29T00:44:03;99549.94;;;20.06;79.84
13709;BME280;54933;51.908;7.730;2022-12-29T00:46:35;99551.56;;;20.07;80.01
13709;BME280;54933;51.908;7.730;2022-12-29T00:49:01;99543.47;;;20.07;80.04
13709;BME280;54933;51.908;7.730;2022-12-29T00:51:45;99542.94;;;20.05;80.05
13709;BME280;54933;51.908;7.730;2022-12-29T00:54:11;99538.09;;;20.07;79.85
13709;BME280;54933;51.908;7.730;2022-12-29T00:56:36;99538.09;;;20.07;79.98
13709;BME280;54933;51.908;7.730;2022-12-29T00:59:07;99535.41;;;20.07;79.85
13709;BME280;54933;51.908;7.730;2022-12-29T01:01:33;99532.69;;;20.07;79.94
13709;BME280;54933;51.908;7.730;2022-12-29T01:03:58;99535.41;;;20.07;80.01
13709;BME280;54933;51.908;7.730;2022-12-29T01:06:23;99532.69;;;20.07;80.14
13709;BME280;54933;51.908;7.730;2022-12-29T01:08:49;99533.53;;;20.07;79.73
13709;BME280;54933;51.908;7.730;2022-12-29T01:11:34;99530.00;;;20.07;79.99
13709;BME280;54933;51.908;7.730;2022-12-29T01:13:59;99529.19;;;20.06;79.92
13709;BME280;54933;51.908;7.730;2022-12-29T01:16:25;99527.31;;;20.07;79.95
13709;BME280;54933;51.908;7.730;2022-12-29T01:18:50;99523.56;;;20.08;80.04
13709;BME280;54933;51.908;7.730;2022-12-29T01:21:15;99528.97;;;20.08;80.06
13709;BME280;54933;51.908;7.730;2022-12-29T01:23:40;99520.03;;;20.07;79.92
13709;BME280;54933;51.908;7.730;2022-12-29T01:26:10;99511.13;;;20.07;79.97
13709;BME280;54933;51.908;7.730;2022-12-29T01:28:36;99510.09;;;20.08;79.98
13709;BME280;54933;51.908;7.730;2022-12-29T01:31:03;99504.69;;;20.08;79.96
13709;BME280;54933;51.908;7.730;2022-12-29T01:33:29;99508.44;;;20.07;80.07
13709;BME280;54933;51.908;7.730;2022-12-29T01:35:55;99510.09;;;20.08;80.00
13709;BME280;54933;51.908;7.730;2022-12-29T01:38:20;99495.53;;;20.09;79.80
13709;BME280;54933;51.908;7.730;2022-12-29T01:40:46;99499.31;;;20.08;79.85
13709;BME280;54933;51.908;7.730;2022-12-29T01:43:13;99493.91;;;20.08;80.05
13709;BME280;54933;51.908;7.730;2022-12-29T01:45:45;99487.69;;;20.07;79.87
13709;BME280;54933;51.908;7.730;2022-12-29T01:48:13;99483.13;;;20.08;79.99
13709;BME280;54933;51.908;7.730;2022-12-29T01:50:41;99483.91;;;20.08;80.13
13709;BME280;54933;51.908;7.730;2022-12-29T01:53:17;99493.91;;;20.08;80.06
13709;BME280;54933;51.908;7.730;2022-12-29T01:55:50;99482.28;;;20.07;79.99
13709;BME280;54933;51.908;7.730;2022-12-29T01:58:20;99475.03;;;20.08;79.88
13709;BME280;54933;51.908;7.730;2022-12-29T02:00:47;99474.19;;;20.07;79.93
13709;BME280;54933;51.908;7.730;2022-12-29T02:03:13;99463.41;;;20.07;79.98
13709;BME280;54933;51.908;7.730;2022-12-29T02:05:50;99456.16;;;20.08;79.96
13709;BME280;54933;51.908;7.730;2022-12-29T02:08:18;99466.94;;;20.08;80.08
13709;BME280;54933;51.908;7.730;2022-12-29T02:10:44;99469.63;;;20.08;79.86
13709;BME280;54933;51.908;7.730;2022-12-29T02:13:10;99459.88;;;20.07;79.90
13709;BME280;54933;51.908;7.730;2022-12-29T02:15:47;99462.34;;;20.08;79.84
13709;BME280;54933;51.908;7.730;2022-12-29T02:18:54;99471.50;;;20.07;79.84
13709;BME280;54933;51.908;7.730;2022-12-29T02:24:37;99468.81;;;20.07;79.90
13709;BME280;54933;51.908;7.730;2022-12-29T02:27:14;99466.13;;;20.07;79.95
13709;BME280;54933;51.908;7.730;2022-12-29T02:30:07;99458.03;;;20.07;79.85
13709;BME280;54933;51.908;7.730;2022-12-29T02:32:52;99454.25;;;20.08;79.80
13709;BME280;54933;51.908;7.730;2022-12-29T02:35:44;99441.84;;;20.07;79.85
13709;BME280;54933;51.908;7.730;2022-12-29T02:41:16;99447.22;;;20.07;80.06
13709;BME280;54933;51.908;7.730;2022-12-29T02:43:50;99454.50;;;20.07;80.05
13709;BME280;54933;51.908;7.730;2022-12-29T02:46:44;99437.28;;;20.08;79.82
13709;BME280;54933;51.908;7.730;2022-12-29T02:49:16;99449.09;;;20.07;80.00
13709;BME280;54933;51.908;7.730;2022-12-29T02:51:57;99449.09;;;20.07;80.00
13709;BME280;54933;51.908;7.730;2022-12-29T02:54:23;99439.16;;;20.07;79.85
13709;BME280;54933;51.908;7.730;2022-12-29T02:57:31;99443.72;;;20.07;79.79
13709;BME280;54933;51.908;7.730;2022-12-29T03:16:24;99413.25;;;20.06;79.99
13709;BME280;54933;51.908;7.730;2022-12-29T03:19:25;99411.34;;;20.07;79.86
13709;BME280;54933;51.908;7.730;2022-12-29T03:21:55;99413.25;;;20.06;79.93
13709;BME280;54933;51.908;7.730;2022-12-29T03:24:44;99405.97;;;20.07;79.67
13709;BME280;54933;51.908;7.730;2022-12-29T03:27:16;99407.03;;;20.06;79.58
13709;BME280;54933;51.908;7.730;2022-12-29T03:29:48;99415.13;;;20.06;79.58
13709;BME280;54933;51.908;7.730;2022-12-29T03:32:19;99405.97;;;20.07;79.64
13709;BME280;54933;51.908;7.730;2022-12-29T03:34:46;99400.56;;;20.07;79.88
13709;BME280;54933;51.908;7.730;2022-12-29T03:37:14;99401.41;;;20.07;79.75
13709;BME280;54933;51.908;7.730;2022-12-29T03:39:42;99392.47;;;20.07;79.81
13709;BME280;54933;51.908;7.730;2022-12-29T03:42:16;99403.25;;;20.07;79.72
13709;BME280;54933;51.908;7.730;2022-12-29T03:44:43;99395.16;;;20.07;79.66
13709;BME280;54933;51.908;7.730;2022-12-29T03:47:14;99405.97;;;20.07;79.75
13709;BME280;54933;51.908;7.730;2022-12-29T03:49:40;99391.69;;;20.06;79.72
13709;BME280;54933;51.908;7.730;2022-12-29T03:52:05;99394.13;;;20.08;79.61
13709;BME280;54933;51.908;7.730;2022-12-29T03:54:31;99397.88;;;20.07;79.70
13709;BME280;54933;51.908;7.730;2022-12-29T03:56:56;99396.81;;;20.08;79.70
13709;BME280;54933;51.908;7.730;2022-12-29T03:59:22;99406.53;;;20.09;79.47
13709;BME280;54933;51.908;7.730;2022-12-29T04:01:47;99402.22;;;20.08;79.51
13709;BME280;54933;51.908;7.730;2022-12-29T04:04:12;99397.63;;;20.08;79.44
13709;BME280;54933;51.908;7.730;2022-12-29T04:06:38;99391.44;;;20.08;79.49
13709;BME280;54933;51.908;7.730;2022-12-29T04:09:03;99386.84;;;20.08;79.41
13709;BME280;54933;51.908;7.730;2022-12-29T04:11:29;99394.13;;;20.08;79.43
13709;BME280;54933;51.908;7.730;2022-12-29T04:13:54;99401.16;;;20.09;79.46
13709;BME280;54933;51.908;7.730;2022-12-29T04:16:19;99384.97;;;20.09;79.67
13709;BME280;54933;51.908;7.730;2022-12-29T04:18:44;99386.03;;;20.08;79.49
13709;BME280;54933;51.908;7.730;2022-12-29T04:21:10;99391.44;;;20.08;79.52
13709;BME280;54933;51.908;7.730;2022-12-29T04:23:37;99376.88;;;20.09;79.47
13709;BME280;54933;51.908;7.730;2022-12-29T04:26:03;99393.06;;;20.09;79.48
13709;BME280;54933;51.908;7.730;2022-12-29T04:28:29;99391.19;;;20.09;79.59
13709;BME280;54933;51.908;7.730;2022-12-29T04:30:54;99394.69;;;20.10;79.40
13709;BME280;54933;51.908;7.730;2022-12-29T04:33:20;99393.06;;;20.09;79.40
13709;BME280;54933;51.908;7.730;2022-12-29T04:35:46;99395.50;;;20.10;79.44
13709;BME280;54933;51.908;7.730;2022-12-29T04:38:11;99386.59;;;20.10;79.32
13709;BME280;54933;51.908;7.730;2022-12-29T04:40:41;99387.41;;;20.10;79.52
13709;BME280;54933;51.908;7.730;2022-12-29T04:43:07;99390.94;;;20.11;79.57
13709;BME280;54933;51.908;7.730;2022-12-29T04:45:32;99387.41;;;20.10;79.64
13709;BME280;54933;51.908;7.730;2022-12-29T04:47:57;99382.84;;;20.11;79.43
13709;BME280;54933;51.908;7.730;2022-12-29T04:50:23;99374.75;;;20.11;79.51
13709;BME280;54933;51.908;7.730;2022-12-29T04:52:48;99380.16;;;20.11;79.30
13709;BME280;54933;51.908;7.730;2022-12-29T04:55:14;99373.69;;;20.12;79.50
13709;BME280;54933;51.908;7.730;2022-12-29T04:57:39;99371.00;;;20.12;79.39
13709;BME280;54933;51.908;7.730;2022-12-29T05:00:05;99371.00;;;20.12;79.47
13709;BME280;54933;51.908;7.730;2022-12-29T05:02:30;99362.91;;;20.12;79.39
13709;BME280;54933;51.908;7.730;2022-12-29T05:04:56;99357.50;;;20.12;79.50
13709;BME280;54933;51.908;7.730;2022-12-29T05:07:21;99349.41;;;20.12;79.29
13709;BME280;54933;51.908;7.730;2022-12-29T05:09:46;99356.47;;;20.13;79.33
13709;BME280;54933;51.908;7.730;2022-12-29T05:12:12;99350.25;;;20.12;79.42
13709;BME280;54933;51.908;7.730;2022-12-29T05:14:37;99354.56;;;20.13;79.33
13709;BME280;54933;51.908;7.730;2022-12-29T05:17:02;99349.16;;;20.13;79.40
13709;BME280;54933;51.908;7.730;2022-12-29T05:19:27;99348.38;;;20.13;79.40
13709;BME280;54933;51.908;7.730;2022-12-29T05:21:53;99355.38;;;20.14;79.42
13709;BME280;54933;51.908;7.730;2022-12-29T05:24:19;99371.56;;;20.14;79.22
13709;BME280;54933;51.908;7.730;2022-12-29T05:26:44;99403.94;;;20.14;79.57
13709;BME280;54933;51.908;7.730;2022-12-29T05:29:09;99421.78;;;20.15;79.48
13709;BME280;54933;51.908;7.730;2022-12-29T05:31:35;99422.81;;;20.14;79.35
13709;BME280;54933;51.908;7.730;2022-12-29T05:34:01;99409.31;;;20.14;79.33
13709;BME280;54933;51.908;7.730;2022-12-29T05:36:26;99401.03;;;20.15;79.41
13709;BME280;54933;51.908;7.730;2022-12-29T05:38:51;99416.94;;;20.17;79.45
13709;BME280;54933;51.908;7.730;2022-12-29T05:41:17;99416.13;;;20.16;79.47
13709;BME280;54933;51.908;7.730;2022-12-29T05:43:42;99422.34;;;20.17;79.44
13709;BME280;54933;51.908;7.730;2022-12-29T05:46:07;99429.41;;;20.18;79.56
13709;BME280;54933;51.908;7.730;2022-12-29T05:48:32;99435.84;;;20.17;79.22
13709;BME280;54933;51.908;7.730;2022-12-29T05:50:58;99444.75;;;20.17;79.28
13709;BME280;54933;51.908;7.730;2022-12-29T05:53:23;99442.88;;;20.18;79.39
13709;BME280;54933;51.908;7.730;2022-12-29T05:55:48;99425.63;;;20.19;79.45
13709;BME280;54933;51.908;7.730;2022-12-29T05:58:15;99418.38;;;20.19;79.30
13709;BME280;54933;51.908;7.730;2022-12-29T06:00:41;99432.66;;;20.20;79.35
13709;BME280;54933;51.908;7.730;2022-12-29T06:03:06;99433.47;;;20.20;79.31
13709;BME280;54933;51.908;7.730;2022-12-29T06:05:31;99425.38;;;20.20;79.40
13709;BME280;54933;51.908;7.730;2022-12-29T06:07:57;99437.00;;;20.21;79.35
13709;BME280;54933;51.908;7.730;2022-12-29T06:10:22;99419.75;;;20.22;79.35
13709;BME280;54933;51.908;7.730;2022-12-29T06:12:47;99423.25;;;20.23;79.27
13709;BME280;54933;51.908;7.730;2022-12-29T06:15:13;99419.25;;;20.25;79.30
13709;BME280;54933;51.908;7.730;2022-12-29T06:17:38;99415.50;;;20.26;79.21
13709;BME280;54933;51.908;7.730;2022-12-29T06:20:04;99434.16;;;20.28;79.34
13709;BME280;54933;51.908;7.730;2022-12-29T06:22:30;99439.53;;;20.28;79.24
13709;BME280;54933;51.908;7.730;2022-12-29T06:24:55;99443.03;;;20.28;79.26
13709;BME280;54933;51.908;7.730;2022-12-29T06:27:20;99451.94;;;20.29;79.24
13709;BME280;54933;51.908;7.730;2022-12-29T06:29:46;99451.94;;;20.29;79.08
13709;BME280;54933;51.908;7.730;2022-12-29T06:32:11;99446.56;;;20.29;79.45
13709;BME280;54933;51.908;7.730;2022-12-29T06:34:36;99449.00;;;20.30;79.19
13709;BME280;54933;51.908;7.730;2022-12-29T06:37:02;99451.72;;;20.30;79.09
13709;BME280;54933;51.908;7.730;2022-12-29T06:39:28;99450.66;;;20.31;79.17
13709;BME280;54933;51.908;7.730;2022-12-29T06:41:53;99462.50;;;20.30;79.00
13709;BME280;54933;51.908;7.730;2022-12-29T06:44:20;99466.84;;;20.31;78.95
13709;BME280;54933;51.908;7.730;2022-12-29T06:46:46;99482.44;;;20.29;78.90
13709;BME280;54933;51.908;7.730;2022-12-29T06:49:11;99475.97;;;20.30;79.05
13709;BME280;54933;51.908;7.730;2022-12-29T06:51:37;99481.38;;;20.30;78.88
13709;BME280;54933;51.908;7.730;2022-12-29T06:54:02;99486.78;;;20.30;79.11
13709;BME280;54933;51.908;7.730;2022-12-29T06:56:27;99488.88;;;20.28;79.00
13709;BME280;54933;51.908;7.730;2022-12-29T06:58:52;99488.66;;;20.30;78.97
13709;BME280;54933;51.908;7.730;2022-12-29T07:01:18;99477.06;;;20.29;78.85
13709;BME280;54933;51.908;7.730;2022-12-29T07:03:43;99487.59;;;20.31;78.86
13709;BME280;54933;51.908;7.730;2022-12-29T07:06:09;99486.78;;;20.30;78.89
13709;BME280;54933;51.908;7.730;2022-12-29T07:08:34;99476.81;;;20.31;78.99
13709;BME280;54933;51.908;7.730;2022-12-29T07:10:59;99480.34;;;20.31;78.85
13709;BME280;54933;51.908;7.730;2022-12-29T07:13:25;99490.88;;;20.33;78.92
13709;BME280;54933;51.908;7.730;2022-12-29T07:15:50;99486.03;;;20.35;78.90
13709;BME280;54933;51.908;7.730;2022-12-29T07:18:15;99486.03;;;20.35;78.85
13709;BME280;54933;51.908;7.730;2022-12-29T07:20:40;99478.78;;;20.35;78.86
13709;BME280;54933;51.908;7.730;2022-12-29T07:23:06;99486.88;;;20.35;78.79
13709;BME280;54933;51.908;7.730;2022-12-29T07:25:31;99483.09;;;20.36;78.94
13709;BME280;54933;51.908;7.730;2022-12-29T07:27:56;99495.53;;;20.37;78.72
13709;BME280;54933;51.908;7.730;2022-12-29T07:30:22;99499.06;;;20.38;78.89
13709;BME280;54933;51.908;7.730;2022-12-29T07:32:47;99499.88;;;20.38;78.65
13709;BME280;54933;51.908;7.730;2022-12-29T07:35:12;99503.06;;;20.35;78.48
13709;BME280;54933;51.908;7.730;2022-12-29T07:37:37;99507.63;;;20.35;78.73
13709;BME280;54933;51.908;7.730;2022-12-29T07:40:03;99521.94;;;20.35;78.56
13709;BME280;54933;51.908;7.730;2022-12-29T07:42:29;99528.16;;;20.36;78.61
13709;BME280;54933;51.908;7.730;2022-12-29T07:44:55;99526.25;;;20.36;78.56
13709;BME280;54933;51.908;7.730;2022-12-29T07:47:20;99526.03;;;20.38;78.61
13709;BME280;54933;51.908;7.730;2022-12-29T07:49:45;99518.75;;;20.38;78.72
13709;BME280;54933;51.908;7.730;2022-12-29T07:52:11;99529.53;;;20.38;78.61
13709;BME280;54933;51.908;7.730;2022-12-29T07:54:36;99534.34;;;20.36;78.71
13709;BME280;54933;51.908;7.730;2022-12-29T07:57:01;99535.19;;;20.37;78.66
13709;BME280;54933;51.908;7.730;2022-12-29T07:59:26;99535.53;;;20.40;78.58
13709;BME280;54933;51.908;7.730;2022-12-29T08:01:52;99538.22;;;20.40;78.54
13709;BME280;54933;51.908;7.730;2022-12-29T08:04:17;99537.16;;;20.41;78.45
13709;BME280;54933;51.908;7.730;2022-12-29T08:06:43;99531.75;;;20.41;78.83
13709;BME280;54933;51.908;7.730;2022-12-29T08:09:10;99527.19;;;20.42;78.59
13709;BME280;54933;51.908;7.730;2022-12-29T08:11:35;99536.09;;;20.42;78.53
13709;BME280;54933;51.908;7.730;2022-12-29T08:14:01;99531.50;;;20.43;78.56
13709;BME280;54933;51.908;7.730;2022-12-29T08:16:27;99535.38;;;20.47;78.39
13709;BME280;54933;51.908;7.730;2022-12-29T08:18:52;99552.88;;;20.44;78.35
13709;BME280;54933;51.908;7.730;2022-12-29T08:21:17;99540.75;;;20.47;78.44
13709;BME280;54933;51.908;7.730;2022-12-29T08:23:42;99543.22;;;20.48;78.40
13709;BME280;54933;51.908;7.730;2022-12-29T08:26:08;99547.78;;;20.48;78.35
13709;BME280;54933;51.908;7.730;2022-12-29T08:28:33;99559.41;;;20.48;78.30
13709;BME280;54933;51.908;7.730;2022-12-29T08:31:02;99544.84;;;20.49;78.39
13709;BME280;54933;51.908;7.730;2022-12-29T08:33:29;99550.25;;;20.49;77.99
13709;BME280;54933;51.908;7.730;2022-12-29T08:36:05;99550.25;;;20.49;78.20
13709;BME280;54933;51.908;7.730;2022-12-29T08:38:30;99547.00;;;20.47;78.24
13709;BME280;54933;51.908;7.730;2022-12-29T08:40:57;99552.88;;;20.44;78.07
13709;BME280;54933;51.908;7.730;2022-12-29T08:43:23;99549.09;;;20.45;78.25
13709;BME280;54933;51.908;7.730;2022-12-29T08:45:48;99558.28;;;20.44;78.19
13709;BME280;54933;51.908;7.730;2022-12-29T08:48:13;99556.63;;;20.43;78.16
13709;BME280;54933;51.908;7.730;2022-12-29T08:50:43;99562.59;;;20.45;78.20
13709;BME280;54933;51.908;7.730;2022-12-29T08:53:09;99575.00;;;20.46;78.34
13709;BME280;54933;51.908;7.730;2022-12-29T08:55:34;99580.16;;;20.48;78.08
13709;BME280;54933;51.908;7.730;2022-12-29T08:57:59;99588.25;;;20.48;78.30
13709;BME280;54933;51.908;7.730;2022-12-29T09:00:25;99586.41;;;20.48;78.28
13709;BME280;54933;51.908;7.730;2022-12-29T09:02:50;99580.75;;;20.50;78.21
13709;BME280;54933;51.908;7.730;2022-12-29T09:05:16;99579.38;;;20.47;78.23
13709;BME280;54933;51.908;7.730;2022-12-29T09:07:41;99576.09;;;20.45;78.11
13709;BME280;54933;51.908;7.730;2022-12-29T09:10:06;99584.44;;;20.44;78.37
13709;BME280;54933;51.908;7.730;2022-12-29T09:12:32;99573.16;;;20.47;78.25
13709;BME280;54933;51.908;7.730;2022-12-29T09:14:57;99575.84;;;20.47;78.70
13709;BME280;54933;51.908;7.730;2022-12-29T09:17:22;99568.56;;;20.47;78.33
13709;BME280;54933;51.908;7.730;2022-12-29T09:20:07;99588.03;;;20.49;78.43
13709;BME280;54933;51.908;7.730;2022-12-29T09:22:33;99581.00;;;20.48;78.46
13709;BME280;54933;51.908;7.730;2022-12-29T09:24:59;99579.72;;;20.51;78.48
13709;BME280;54933;51.908;7.730;2022-12-29T09:27:24;99588.03;;;20.49;78.08
13709;BME280;54933;51.908;7.730;2022-12-29T09:29:49;99592.38;;;20.50;77.98
13709;BME280;54933;51.908;7.730;2022-12-29T09:32:14;99592.97;;;20.52;78.34
13709;BME280;54933;51.908;7.730;2022-12-29T09:34:40;99592.47;;;20.55;78.21
13709;BME280;54933;51.908;7.730;2022-12-29T09:37:05;99600.81;;;20.54;78.33
13709;BME280;54933;51.908;7.730;2022-12-29T09:39:30;99597.53;;;20.52;78.39
13709;BME280;54933;51.908;7.730;2022-12-29T09:44:51;99612.88;;;20.51;77.74
13709;BME280;54933;51.908;7.730;2022-12-29T09:47:20;99616.41;;;20.52;78.12
13709;BME280;54933;51.908;7.730;2022-12-29T09:52:54;99604.53;;;20.53;78.32
13709;BME280;54933;51.908;7.730;2022-12-29T09:55:17;99609.69;;;20.54;78.22
13709;BME280;54933;51.908;7.730;2022-12-29T09:57:54;99611.59;;;20.54;78.30
13709;BME280;54933;51.908;7.730;2022-12-29T10:00:23;99616.16;;;20.53;78.35
13709;BME280;54933;51.908;7.730;2022-12-29T10:02:59;99611.59;;;20.54;78.48
13709;BME280;54933;51.908;7.730;2022-12-29T10:05:35;99607.00;;;20.54;78.32
13709;BME280;54933;51.908;7.730;2022-12-29T10:08:23;99607.59;;;20.56;78.33
13709;BME280;54933;51.908;7.730;2022-12-29T10:10:57;99603.03;;;20.57;78.21
13709;BME280;54933;51.908;7.730;2022-12-29T10:13:51;99602.78;;;20.58;78.49
13709;BME280;54933;51.908;7.730;2022-12-29T10:16:33;99609.00;;;20.59;78.14
13709;BME280;54933;51.908;7.730;2022-12-29T10:24:45;99599.50;;;20.56;78.13
13709;BME280;54933;51.908;7.730;2022-12-29T10:27:13;99595.75;;;20.57;78.36
13709;BME280;54933;51.908;7.730;2022-12-29T10:29:55;99595.75;;;20.57;78.19
13709;BME280;54933;51.908;7.730;2022-12-29T10:32:57;99598.22;;;20.59;78.01
13709;BME280;54933;51.908;7.730;2022-12-29T10:35:26;99599.84;;;20.60;78.26
13709;BME280;54933;51.908;7.730;2022-12-29T10:37:59;99601.25;;;20.62;78.10
13709;BME280;54933;51.908;7.730;2022-12-29T10:40:31;99598.75;;;20.61;78.01
13709;BME280;54933;51.908;7.730;2022-12-29T10:42:58;99596.56;;;20.58;77.99
13709;BME280;54933;51.908;7.730;2022-12-29T10:45:29;99604.66;;;20.58;77.96
13709;BME280;54933;51.908;7.730;2022-12-29T10:48:31;99597.38;;;20.58;77.99
13709;BME280;54933;51.908;7.730;2022-12-29T10:50:59;99594.69;;;20.58;77.99
13709;BME280;54933;51.908;7.730;2022-12-29T10:53:38;99593.59;;;20.59;78.08
13709;BME280;54933;51.908;7.730;2022-12-29T10:56:34;99591.97;;;20.58;78.16
13709;BME280;54933;51.908;7.730;2022-12-29T10:59:06;99595.75;;;20.57;77.96
13709;BME280;54933;51.908;7.730;2022-12-29T11:01:46;99601.16;;;20.57;77.97
13709;BME280;54933;51.908;7.730;2022-12-29T11:07:03;99600.06;;;20.58;77.90
13709;BME280;54933;51.908;7.730;2022-12-29T11:09:30;99601.16;;;20.57;78.01
13709;BME280;54933;51.908;7.730;2022-12-29T11:11:56;99601.94;;;20.58;77.74
13709;BME280;54933;51.908;7.730;2022-12-29T11:14:27;99602.78;;;20.58;77.82
13709;BME280;54933;51.908;7.730;2022-12-29T11:17:04;99616.84;;;20.60;77.83
13709;BME280;54933;51.908;7.730;2022-12-29T11:19:31;99596.88;;;20.61;77.70
13709;BME280;54933;51.908;7.730;2022-12-29T11:22:26;99609.34;;;20.62;77.94
13709;BME280;54933;51.908;7.730;2022-12-29T11:24:53;99596.06;;;20.61;77.72
13709;BME280;54933;51.908;7.730;2022-12-29T11:27:22;99597.72;;;20.62;77.69
13709;BME280;54933;51.908;7.730;2022-12-29T11:29:52;99607.19;;;20.64;77.75
13709;BME280;54933;51.908;7.730;2022-12-29T11:32:22;99592.66;;;20.65;77.81
13709;BME280;54933;51.908;7.730;2022-12-29T11:34:47;99603.47;;;20.65;77.85
13709;BME280;54933;51.908;7.730;2022-12-29T11:37:17;99599.69;;;20.66;77.80
13709;BME280;54933;51.908;7.730;2022-12-29T11:39:57;99613.75;;;20.68;77.64
13709;BME280;54933;51.908;7.730;2022-12-29T11:42:35;99601.88;;;20.69;77.78
13709;BME280;54933;51.908;7.730;2022-12-29T11:45:16;99601.88;;;20.69;77.64
13709;BME280;54933;51.908;7.730;2022-12-29T11:47:45;99602.47;;;20.71;77.58
13709;BME280;54933;51.908;7.730;2022-12-29T11:50:19;99625.94;;;20.71;77.61
13709;BME280;54933;51.908;7.730;2022-12-29T11:52:45;99635.44;;;20.73;77.45
13709;BME280;54933;51.908;7.730;2022-12-29T11:55:20;99638.94;;;20.74;77.47
13709;BME280;54933;51.908;7.730;2022-12-29T11:57:47;99632.75;;;20.73;77.52
13709;BME280;54933;51.908;7.730;2022-12-29T12:00:19;99640.59;;;20.75;77.65
13709;BME280;54933;51.908;7.730;2022-12-29T12:02:51;99635.22;;;20.75;77.52
13709;BME280;54933;51.908;7.730;2022-12-29T12:07:52;99647.63;;;20.76;77.43
13709;BME280;54933;51.908;7.730;2022-12-29T12:10:23;99663.03;;;20.75;77.71
13709;BME280;54933;51.908;7.730;2022-12-29T12:12:56;99661.38;;;20.74;77.45
13709;BME280;54933;51.908;7.730;2022-12-29T12:15:52;99655.16;;;20.74;77.53
13709;BME280;54933;51.908;7.730;2022-12-29T12:18:34;99653.28;;;20.74;77.69
13709;BME280;54933;51.908;7.730;2022-12-29T12:21:13;99673.84;;;20.75;77.83
13709;BME280;54933;51.908;7.730;2022-12-29T12:26:57;99668.44;;;20.75;77.83
13709;BME280;54933;51.908;7.730;2022-12-29T12:32:04;99679.53;;;20.79;77.90
13709;BME280;54933;51.908;7.730;2022-12-29T12:34:37;99685.78;;;20.79;78.12
13709;BME280;54933;51.908;7.730;2022-12-29T12:37:43;99687.88;;;20.77;78.18
13709;BME280;54933;51.908;7.730;2022-12-29T12:40:34;99676.88;;;20.67;77.91
13709;BME280;54933;51.908;7.730;2022-12-29T12:43:20;99697.25;;;20.58;73.68
13709;BME280;54933;51.908;7.730;2022-12-29T12:49:37;99690.16;;;20.69;74.80
13709;BME280;54933;51.908;7.730;2022-12-29T12:55:02;99692.13;;;20.73;75.57
13709;BME280;54933;51.908;7.730;2022-12-29T12:57:49;99707.50;;;20.73;76.01
13709;BME280;54933;51.908;7.730;2022-12-29T13:00:19;99710.78;;;20.75;76.25
13709;BME280;54933;51.908;7.730;2022-12-29T13:11:05;99721.94;;;20.78;76.51
13709;BME280;54933;51.908;7.730;2022-12-29T13:13:47;99727.09;;;20.80;76.45
13709;BME280;54933;51.908;7.730;2022-12-29T13:19:36;99730.59;;;20.80;76.68
13709;BME280;54933;51.908;7.730;2022-12-29T13:22:10;99735.19;;;20.80;76.57
13709;BME280;54933;51.908;7.730;2022-12-29T13:24:59;99751.63;;;20.78;76.74
13709;BME280;54933;51.908;7.730;2022-12-29T13:30:56;99744.22;;;20.74;76.54
13709;BME280;54933;51.908;7.730;2022-12-29T13:33:49;99749.88;;;20.72;76.59
13709;BME280;54933;51.908;7.730;2022-12-29T13:36:26;99742.84;;;20.71;76.26
13709;BME280;54933;51.908;7.730;2022-12-29T13:41:31;99753.66;;;20.71;76.85
13709;BME280;54933;51.908;7.730;2022-12-29T13:43:58;99765.03;;;20.73;76.76
13709;BME280;54933;51.908;7.730;2022-12-29T13:46:36;99778.28;;;20.75;77.08
13709;BME280;54933;51.908;7.730;2022-12-29T13:49:07;99780.75;;;20.76;77.01
13709;BME280;54933;51.908;7.730;2022-12-29T13:51:34;99772.66;;;20.76;76.87
13709;BME280;54933;51.908;7.730;2022-12-29T13:54:13;99788.59;;;20.78;77.10
13709;BME280;54933;51.908;7.730;2022-12-29T13:57:01;99787.53;;;20.79;77.26
13709;BME280;54933;51.908;7.730;2022-12-29T13:59:44;99782.13;;;20.79;76.94
13709;BME280;54933;51.908;7.730;2022-12-29T14:05:05;99790.00;;;20.80;77.23
13709;BME280;54933;51.908;7.730;2022-12-29T14:07:56;99787.09;;;20.82;77.33
13709;BME280;54933;51.908;7.730;2022-12-29T14:10:32;99795.19;;;20.82;77.09
13709;BME280;54933;51.908;7.730;2022-12-29T14:13:05;99792.25;;;20.83;77.19
13709;BME280;54933;51.908;7.730;2022-12-29T14:15:38;99789.53;;;20.83;77.26
13709;BME280;54933;51.908;7.730;2022-12-29T14:18:19;99802.44;;;20.81;77.23
13709;BME280;54933;51.908;7.730;2022-12-29T14:20:59;99803.97;;;20.77;76.93
13709;BME280;54933;51.908;7.730;2022-12-29T14:23:46;99807.75;;;20.76;77.01
13709;BME280;54933;51.908;7.730;2022-12-29T14:26:17;99810.44;;;20.76;77.06
13709;BME280;54933;51.908;7.730;2022-12-29T14:28:47;99801.28;;;20.77;77.16
13709;BME280;54933;51.908;7.730;2022-12-29T14:41:59;99805.53;;;20.73;76.92